Time;durP1;ratioP1;P1;durP2;ratioP2;P2;SDS_P1;SDS_P2;PMS_P1;PMS_P2;Temp;Humidity;BMP_temperature;BMP_pressure;BME280_temperature;BME280_humidity;BME280_pressure;Samples;Min_cycle;Max_cycle;Signal;HPM_P1;HPM_P2
2023/07/29 03:12:00;;;;;;;7.70;7.50;;;16.50;99.90;;;;;;6251600;22;20190;-78
2023/07/29 03:14:27;;;;;;;7.78;7.57;;;16.40;99.90;;;;;;6286689;22;20197;-79
2023/07/29 03:16:54;;;;;;;8.00;7.80;;;16.40;99.90;;;;;;6286011;22;20224;-78
2023/07/29 03:19:21;;;;;;;8.00;7.80;;;16.40;99.90;;;;;;6285897;22;20237;-79
2023/07/29 03:21:48;;;;;;;8.10;7.90;;;16.40;99.90;;;;;;6285421;22;20276;-79
2023/07/29 03:24:15;;;;;;;8.20;8.00;;;16.40;99.90;;;;;;6286580;22;20197;-79
2023/07/29 03:26:43;;;;;;;8.20;8.00;;;16.50;99.90;;;;;;6287849;22;20209;-79
2023/07/29 03:29:11;;;;;;;8.40;8.20;;;16.50;99.90;;;;;;6288628;22;20209;-80
2023/07/29 03:31:39;;;;;;;8.30;8.10;;;16.50;99.90;;;;;;6286735;22;20209;-79
2023/07/29 03:34:06;;;;;;;8.38;8.18;;;16.50;99.90;;;;;;6285750;22;20268;-80
2023/07/29 03:36:33;;;;;;;8.38;8.18;;;16.40;99.90;;;;;;6286070;22;20205;-79
2023/07/29 03:39:00;;;;;;;8.23;8.02;;;16.40;99.90;;;;;;6287003;22;20202;-80
2023/07/29 03:41:27;;;;;;;8.40;8.20;;;16.40;99.90;;;;;;6287707;22;20205;-79
2023/07/29 03:43:54;;;;;;;8.35;8.15;;;16.40;99.90;;;;;;6287334;22;20202;-79
2023/07/29 03:46:22;;;;;;;8.30;8.10;;;16.40;99.90;;;;;;6287112;22;20200;-79
2023/07/29 03:48:49;;;;;;;8.05;7.85;;;16.50;99.90;;;;;;6286062;22;20220;-79
2023/07/29 03:51:17;;;;;;;8.10;7.90;;;16.50;99.90;;;;;;6285431;22;20196;-79
2023/07/29 03:53:44;;;;;;;8.10;7.90;;;16.50;99.90;;;;;;6285741;22;20215;-79
2023/07/29 03:56:11;;;;;;;8.20;8.00;;;16.50;99.90;;;;;;6285019;22;20206;-80
2023/07/29 03:58:38;;;;;;;8.20;8.00;;;16.50;99.90;;;;;;6284962;22;20236;-79
2023/07/29 04:01:05;;;;;;;8.10;7.90;;;16.40;99.90;;;;;;6287305;22;20201;-80
2023/07/29 04:03:34;;;;;;;8.00;7.80;;;16.40;99.90;;;;;;6289211;22;20209;-79
2023/07/29 04:06:02;;;;;;;8.00;7.80;;;16.50;99.90;;;;;;6288578;22;20216;-80
2023/07/29 04:08:29;;;;;;;8.00;7.80;;;16.40;99.90;;;;;;6288181;22;20882;-80
2023/07/29 04:10:56;;;;;;;8.18;7.97;;;16.40;99.90;;;;;;6287750;22;20205;-80
2023/07/29 04:13:23;;;;;;;8.00;7.80;;;16.40;99.90;;;;;;6288597;22;20209;-80
2023/07/29 04:15:50;;;;;;;8.10;7.90;;;16.50;99.90;;;;;;6288157;22;20228;-80
2023/07/29 04:18:17;;;;;;;8.10;7.90;;;16.50;99.90;;;;;;6288980;22;20306;-80
2023/07/29 04:20:45;;;;;;;7.90;7.70;;;16.50;99.90;;;;;;6286146;22;20200;-80
2023/07/29 04:23:12;;;;;;;8.00;7.80;;;16.50;99.90;;;;;;6287145;22;20221;-80
2023/07/29 04:25:39;;;;;;;8.00;7.80;;;16.50;99.90;;;;;;6288058;22;20194;-79
2023/07/29 04:28:06;;;;;;;7.90;7.70;;;16.60;99.90;;;;;;6289843;22;20228;-79
2023/07/29 04:30:33;;;;;;;7.90;7.70;;;16.60;99.90;;;;;;6288585;22;20197;-81
2023/07/29 04:33:01;;;;;;;8.02;7.82;;;16.60;99.90;;;;;;6288101;22;20672;-79
2023/07/29 04:35:27;;;;;;;8.00;7.80;;;16.70;99.90;;;;;;6288596;22;20277;-80
2023/07/29 04:37:56;;;;;;;7.97;7.78;;;16.70;99.90;;;;;;6285147;22;20189;-79
2023/07/29 04:40:23;;;;;;;7.97;7.78;;;16.70;99.90;;;;;;6287471;22;20266;-80
2023/07/29 04:42:50;;;;;;;7.93;7.72;;;16.80;99.90;;;;;;6288795;22;20244;-81
2023/07/29 04:45:17;;;;;;;7.80;7.60;;;16.90;99.90;;;;;;6284677;22;20223;-79
2023/07/29 04:47:44;;;;;;;7.70;7.50;;;16.90;99.90;;;;;;6285788;22;20216;-80
2023/07/29 04:50:11;;;;;;;7.50;7.30;;;16.90;99.90;;;;;;6285546;22;20225;-80
2023/07/29 04:52:38;;;;;;;7.90;7.70;;;17.00;99.90;;;;;;6285320;22;20198;-79
2023/07/29 04:55:08;;;;;;;8.05;7.85;;;17.00;99.90;;;;;;6285212;22;20696;-79
2023/07/29 04:57:35;;;;;;;7.72;7.53;;;17.10;99.90;;;;;;6285362;22;20205;-79
2023/07/29 05:00:04;;;;;;;7.97;7.78;;;17.10;99.90;;;;;;6285445;22;20234;-79
2023/07/29 05:02:31;;;;;;;7.80;7.60;;;17.20;99.90;;;;;;6285126;22;20212;-80
2023/07/29 05:04:58;;;;;;;7.82;7.63;;;17.30;99.90;;;;;;6285086;22;20698;-80
2023/07/29 05:07:25;;;;;;;7.70;7.50;;;17.30;99.90;;;;;;6287287;22;20223;-78
2023/07/29 05:09:52;;;;;;;7.80;7.60;;;17.30;99.90;;;;;;6284367;22;20194;-79
2023/07/29 05:12:20;;;;;;;7.80;7.60;;;17.40;99.90;;;;;;6283813;22;20292;-79
2023/07/29 05:14:47;;;;;;;7.85;7.65;;;17.40;99.90;;;;;;6284528;22;20202;-79
2023/07/29 05:17:15;;;;;;;7.90;7.70;;;17.50;99.90;;;;;;6284255;22;20289;-79
2023/07/29 05:19:43;;;;;;;7.93;7.72;;;17.50;99.90;;;;;;6285670;22;20257;-79
2023/07/29 05:22:12;;;;;;;7.72;7.53;;;17.60;99.90;;;;;;6284412;22;20240;-79
2023/07/29 05:24:39;;;;;;;7.88;7.68;;;17.60;99.90;;;;;;6285496;22;20692;-78
2023/07/29 05:27:08;;;;;;;7.70;7.50;;;17.70;99.90;;;;;;6284937;22;20272;-79
2023/07/29 05:29:36;;;;;;;7.75;7.55;;;17.70;99.90;;;;;;6287241;22;20189;-80
2023/07/29 05:32:04;;;;;;;7.93;7.72;;;17.70;99.90;;;;;;6285808;22;20213;-79
2023/07/29 05:34:31;;;;;;;7.85;7.65;;;17.70;99.90;;;;;;6285119;22;20193;-78
2023/07/29 05:36:58;;;;;;;7.50;7.30;;;17.70;99.90;;;;;;6283999;22;20340;-78
2023/07/29 05:39:25;;;;;;;7.68;7.47;;;17.70;99.90;;;;;;6286663;22;20190;-78
2023/07/29 05:41:52;;;;;;;7.43;7.22;;;17.80;99.90;;;;;;6285296;22;20241;-79
2023/07/29 05:44:19;;;;;;;7.60;7.40;;;17.80;99.90;;;;;;6284859;22;20217;-79
2023/07/29 05:46:48;;;;;;;7.43;7.22;;;18.00;99.90;;;;;;6285369;22;20729;-78
2023/07/29 05:49:15;;;;;;;7.68;7.47;;;18.00;99.90;;;;;;6284995;22;20201;-79
2023/07/29 05:51:42;;;;;;;7.90;7.70;;;18.10;99.90;;;;;;6284868;22;20211;-79
2023/07/29 05:54:09;;;;;;;7.65;7.45;;;18.10;99.90;;;;;;6285010;22;20228;-79
2023/07/29 05:56:36;;;;;;;7.65;7.45;;;18.20;99.90;;;;;;6284880;22;20206;-80
2023/07/29 05:59:03;;;;;;;7.70;7.50;;;18.30;99.90;;;;;;6288401;22;20193;-79
2023/07/29 06:01:30;;;;;;;8.00;7.80;;;18.30;99.90;;;;;;6290861;22;20232;-79
2023/07/29 06:03:58;;;;;;;8.10;7.90;;;18.30;99.90;;;;;;6287987;22;20277;-78
2023/07/29 06:06:26;;;;;;;8.00;7.80;;;18.30;99.90;;;;;;6284771;22;20201;-79
2023/07/29 06:08:53;;;;;;;7.80;7.60;;;18.30;99.90;;;;;;6287159;22;20193;-80
2023/07/29 06:11:20;;;;;;;8.10;7.90;;;18.30;99.90;;;;;;6287101;22;20207;-80
2023/07/29 06:13:49;;;;;;;8.07;7.88;;;18.30;99.90;;;;;;6287438;22;20190;-80
2023/07/29 06:16:16;;;;;;;7.88;7.68;;;18.20;99.90;;;;;;6287508;22;20201;-79
2023/07/29 06:18:43;;;;;;;8.02;7.82;;;18.20;99.90;;;;;;6288271;22;20265;-79
2023/07/29 06:21:16;;;;;;;7.90;7.70;;;18.20;99.90;;;;;;6287639;22;20277;-80
2023/07/29 06:23:43;;;;;;;8.00;7.80;;;18.20;99.90;;;;;;6289055;22;20197;-80
2023/07/29 06:26:10;;;;;;;7.90;7.70;;;18.20;99.90;;;;;;6289568;22;20190;-80
2023/07/29 06:28:40;;;;;;;7.90;7.70;;;18.20;99.90;;;;;;6284059;22;20203;-78
2023/07/29 06:31:09;;;;;;;8.00;7.80;;;18.20;99.90;;;;;;6285676;22;20197;-79
2023/07/29 06:33:36;;;;;;;7.70;7.50;;;18.10;99.90;;;;;;6285815;22;20224;-79
2023/07/29 06:36:03;;;;;;;7.50;7.30;;;18.10;99.90;;;;;;6284934;22;20206;-79
2023/07/29 06:38:32;;;;;;;7.80;7.60;;;18.10;99.90;;;;;;6285095;22;20216;-79
2023/07/29 06:40:59;;;;;;;7.90;7.70;;;18.10;99.90;;;;;;6284872;22;20190;-79
2023/07/29 06:43:26;;;;;;;7.75;7.55;;;18.10;99.90;;;;;;6286186;22;20209;-78
2023/07/29 06:45:53;;;;;;;7.57;7.38;;;18.10;99.90;;;;;;6286325;22;20291;-80
2023/07/29 06:48:21;;;;;;;7.40;7.20;;;18.00;99.90;;;;;;6287538;22;20216;-79
2023/07/29 06:50:48;;;;;;;7.60;7.40;;;17.90;99.90;;;;;;6291559;22;20276;-79
2023/07/29 06:53:15;;;;;;;7.50;7.30;;;17.80;99.90;;;;;;6283951;22;20201;-79
2023/07/29 06:55:43;;;;;;;7.50;7.30;;;17.80;99.90;;;;;;6285025;22;20199;-79
2023/07/29 06:58:11;;;;;;;7.30;7.10;;;17.80;99.90;;;;;;6285476;22;20190;-79
2023/07/29 07:00:38;;;;;;;7.60;7.40;;;17.70;99.90;;;;;;6284227;22;20190;-79
2023/07/29 07:03:05;;;;;;;7.30;7.10;;;17.70;99.90;;;;;;6284074;22;20212;-79
2023/07/29 07:05:32;;;;;;;7.40;7.20;;;17.80;99.90;;;;;;6284054;22;20193;-79
2023/07/29 07:07:59;;;;;;;7.07;6.88;;;17.80;99.90;;;;;;6286773;22;20205;-79
2023/07/29 07:10:26;;;;;;;7.22;7.03;;;17.80;99.90;;;;;;6283577;22;20274;-79
2023/07/29 07:12:55;;;;;;;7.10;6.90;;;17.90;99.90;;;;;;6283334;22;20260;-79
2023/07/29 07:15:22;;;;;;;7.20;7.00;;;17.90;99.90;;;;;;6284372;22;20224;-79
2023/07/29 07:17:49;;;;;;;7.10;6.90;;;17.90;99.90;;;;;;6284255;22;20201;-79
2023/07/29 07:20:16;;;;;;;7.00;6.80;;;18.00;99.90;;;;;;6284244;22;20217;-79
2023/07/29 07:22:44;;;;;;;7.00;6.80;;;18.10;99.90;;;;;;6284045;22;20226;-79
2023/07/29 07:25:11;;;;;;;7.00;6.80;;;18.20;99.90;;;;;;6284096;22;20206;-80
2023/07/29 07:27:38;;;;;;;6.70;6.50;;;18.30;99.90;;;;;;6284134;22;20202;-78
2023/07/29 07:30:08;;;;;;;7.00;6.80;;;18.30;99.90;;;;;;6284751;22;20198;-79
2023/07/29 07:32:36;;;;;;;7.00;6.80;;;18.40;99.90;;;;;;6285387;22;20216;-78
2023/07/29 07:35:04;;;;;;;7.00;6.80;;;18.50;99.90;;;;;;6284066;22;20205;-79
2023/07/29 07:37:31;;;;;;;6.90;6.70;;;18.50;99.90;;;;;;6285249;22;20202;-79
2023/07/29 07:39:58;;;;;;;6.50;6.30;;;18.60;99.90;;;;;;6287628;22;20197;-78
2023/07/29 07:42:25;;;;;;;6.60;6.40;;;18.60;99.90;;;;;;6290877;22;20293;-80
2023/07/29 07:44:52;;;;;;;6.82;6.63;;;18.70;99.90;;;;;;6284231;22;20280;-80
2023/07/29 07:47:21;;;;;;;6.57;6.38;;;18.70;99.90;;;;;;6285212;22;20201;-79
2023/07/29 07:49:50;;;;;;;6.78;6.57;;;18.70;99.90;;;;;;6297214;22;20229;-79
2023/07/29 07:52:17;;;;;;;6.50;6.30;;;18.70;99.90;;;;;;6310084;22;20250;-78
2023/07/29 07:54:44;;;;;;;6.63;6.43;;;18.70;99.90;;;;;;6310659;22;20209;-79
2023/07/29 07:57:11;;;;;;;6.95;6.75;;;18.70;99.90;;;;;;6310084;22;20182;-78
2023/07/29 07:59:38;;;;;;;6.90;6.70;;;18.70;99.90;;;;;;6302214;22;20240;-80
2023/07/29 08:02:06;;;;;;;7.00;6.80;;;18.70;99.90;;;;;;6286692;22;20205;-79
2023/07/29 08:04:34;;;;;;;7.00;6.80;;;18.60;99.90;;;;;;6288778;22;20214;-79
2023/07/29 08:07:01;;;;;;;7.07;6.88;;;18.50;99.90;;;;;;6293253;22;20264;-79
2023/07/29 08:09:28;;;;;;;7.00;6.80;;;18.50;99.90;;;;;;6293261;22;20205;-78
2023/07/29 08:11:55;;;;;;;6.63;6.43;;;18.50;99.90;;;;;;6286096;22;20220;-78
2023/07/29 08:14:22;;;;;;;6.80;6.60;;;18.40;99.90;;;;;;6285923;22;20212;-79
2023/07/29 08:16:49;;;;;;;6.75;6.55;;;18.30;99.90;;;;;;6285802;22;20197;-79
2023/07/29 08:19:16;;;;;;;6.70;6.50;;;18.20;99.90;;;;;;6285451;22;20221;-79
2023/07/29 08:21:44;;;;;;;6.60;6.40;;;18.20;99.90;;;;;;6285408;22;20267;-79
2023/07/29 08:24:11;;;;;;;6.78;6.57;;;18.20;99.90;;;;;;6285517;22;20209;-79
2023/07/29 08:26:38;;;;;;;6.72;6.53;;;18.20;99.90;;;;;;6285486;22;20197;-79
2023/07/29 08:29:06;;;;;;;6.90;6.70;;;18.20;99.90;;;;;;6285911;22;20291;-79
2023/07/29 08:31:33;;;;;;;6.82;6.63;;;18.20;99.90;;;;;;6285291;22;20208;-78
2023/07/29 08:34:01;;;;;;;6.75;6.55;;;18.20;99.90;;;;;;6294009;22;20325;-79
2023/07/29 08:36:28;;;;;;;6.45;6.25;;;18.10;99.90;;;;;;6290684;22;20202;-79
2023/07/29 08:38:56;;;;;;;6.50;6.30;;;18.10;99.90;;;;;;6288180;22;20194;-79
2023/07/29 08:41:28;;;;;;;6.40;6.20;;;18.10;99.90;;;;;;6285614;22;20201;-79
2023/07/29 08:44:03;;;;;;;6.70;6.50;;;18.00;99.90;;;;;;6286025;22;20245;-79
2023/07/29 08:46:30;;;;;;;6.80;6.60;;;18.00;99.90;;;;;;6285144;22;20193;-79
2023/07/29 08:48:58;;;;;;;6.72;6.53;;;18.00;99.90;;;;;;6284963;22;20241;-79
2023/07/29 08:51:28;;;;;;;6.70;6.50;;;18.00;99.90;;;;;;6284257;22;20208;-79
2023/07/29 08:53:57;;;;;;;6.80;6.60;;;17.90;99.90;;;;;;6285399;22;20210;-79
2023/07/29 08:56:25;;;;;;;6.68;6.47;;;17.90;99.90;;;;;;6284766;22;20197;-79
2023/07/29 08:58:53;;;;;;;6.70;6.50;;;17.90;99.90;;;;;;6284424;22;20201;-80
2023/07/29 09:01:20;;;;;;;6.65;6.45;;;17.90;99.90;;;;;;6283579;22;20236;-78
2023/07/29 09:03:47;;;;;;;6.80;6.60;;;17.90;99.90;;;;;;6284583;22;20209;-79
2023/07/29 09:06:16;;;;;;;6.68;6.47;;;18.00;99.90;;;;;;6284446;22;20212;-79
2023/07/29 09:08:44;;;;;;;6.50;6.30;;;18.10;99.90;;;;;;6284770;22;20209;-80
2023/07/29 09:11:16;;;;;;;6.47;6.28;;;18.10;99.90;;;;;;6284354;22;20205;-79
2023/07/29 09:13:44;;;;;;;6.75;6.55;;;18.20;99.90;;;;;;6284517;22;20231;-79
2023/07/29 09:16:11;;;;;;;6.60;6.40;;;18.30;99.90;;;;;;6284886;22;20235;-79
2023/07/29 09:18:38;;;;;;;6.70;6.50;;;18.30;99.90;;;;;;6285221;22;20190;-78
2023/07/29 09:21:05;;;;;;;7.10;6.90;;;18.40;99.90;;;;;;6284907;22;20201;-79
2023/07/29 09:23:41;;;;;;;7.30;7.10;;;18.50;99.90;;;;;;6286174;22;20261;-79
2023/07/29 09:26:08;;;;;;;7.35;7.15;;;18.50;99.90;;;;;;6288768;22;20200;-79
2023/07/29 09:28:39;;;;;;;7.00;6.80;;;18.60;99.90;;;;;;6285785;22;20205;-78
2023/07/29 09:31:06;;;;;;;7.00;6.80;;;18.60;99.90;;;;;;6286172;22;20185;-79
2023/07/29 09:33:36;;;;;;;7.05;6.85;;;18.60;99.90;;;;;;6285265;22;20205;-79
2023/07/29 09:36:06;;;;;;;6.90;6.70;;;18.50;99.90;;;;;;6284280;22;20280;-79
2023/07/29 09:38:33;;;;;;;6.88;6.68;;;18.50;99.90;;;;;;6286502;22;20280;-80
2023/07/29 09:41:00;;;;;;;6.93;6.72;;;18.60;99.90;;;;;;6285743;22;20194;-79
2023/07/29 09:43:33;;;;;;;7.10;6.90;;;18.70;99.90;;;;;;6287462;22;20193;-80
2023/07/29 09:46:03;;;;;;;7.00;6.80;;;18.70;99.90;;;;;;6287650;22;20239;-79
2023/07/29 09:48:34;;;;;;;6.88;6.68;;;18.80;99.90;;;;;;6287615;22;20221;-80
2023/07/29 09:51:10;;;;;;;6.85;6.65;;;19.00;99.90;;;;;;6286958;22;20193;-79
2023/07/29 09:53:42;;;;;;;7.00;6.80;;;19.10;99.90;;;;;;6287016;22;20288;-79
2023/07/29 09:56:12;;;;;;;6.70;6.50;;;19.30;99.90;;;;;;6287503;22;20189;-79
2023/07/29 09:58:40;;;;;;;6.63;6.43;;;19.40;99.90;;;;;;6286865;22;20208;-80
2023/07/29 10:01:10;;;;;;;6.65;6.45;;;19.60;99.90;;;;;;6286807;22;20197;-80
2023/07/29 10:03:38;;;;;;;6.50;6.30;;;19.80;99.90;;;;;;6286810;22;20201;-79
2023/07/29 10:06:06;;;;;;;6.60;6.40;;;19.80;99.90;;;;;;6287388;22;20209;-79
2023/07/29 10:08:37;;;;;;;6.55;6.35;;;20.00;99.90;;;;;;6288109;22;20580;-80
2023/07/29 10:11:08;;;;;;;6.70;6.50;;;20.00;99.90;;;;;;6285943;22;20236;-82
2023/07/29 10:13:39;;;;;;;6.47;6.28;;;20.10;99.90;;;;;;6286917;22;20232;-80
2023/07/29 10:16:07;;;;;;;6.50;6.30;;;20.30;99.90;;;;;;6296079;22;20265;-77
2023/07/29 10:18:35;;;;;;;6.47;6.28;;;20.60;99.90;;;;;;6283955;22;20205;-79
2023/07/29 10:21:03;;;;;;;6.50;6.30;;;20.70;99.90;;;;;;6286401;22;20206;-80
2023/07/29 10:23:39;;;;;;;6.28;6.10;;;21.00;99.90;;;;;;6286686;22;20198;-80
2023/07/29 10:26:07;;;;;;;6.40;6.20;;;21.10;99.90;;;;;;6287088;22;20208;-80
2023/07/29 10:28:38;;;;;;;6.75;6.55;;;21.30;99.90;;;;;;6286830;22;20197;-80
2023/07/29 10:31:08;;;;;;;6.90;6.70;;;21.40;99.90;;;;;;6285839;22;20190;-79
2023/07/29 10:33:35;;;;;;;7.10;6.90;;;21.50;99.90;;;;;;6286970;22;20209;-79
2023/07/29 10:36:03;;;;;;;7.13;6.93;;;21.60;99.90;;;;;;6286903;22;20272;-79
2023/07/29 10:38:31;;;;;;;7.20;7.00;;;21.60;99.90;;;;;;6286432;22;20193;-77
2023/07/29 10:41:00;;;;;;;7.07;6.88;;;21.80;99.90;;;;;;6290154;22;20202;-79
2023/07/29 10:43:32;;;;;;;7.55;7.35;;;21.90;99.90;;;;;;6285069;22;20248;-77
2023/07/29 10:46:18;;;;;;;8.18;7.97;;;21.90;99.90;;;;;;6284629;22;20291;-78
2023/07/29 10:48:55;;;;;;;8.43;8.23;;;22.00;99.90;;;;;;6286245;22;20252;-75
2023/07/29 10:51:29;;;;;;;8.40;8.20;;;22.00;99.90;;;;;;6290350;22;20279;-78
2023/07/29 10:53:57;;;;;;;8.50;8.30;;;22.00;99.90;;;;;;6289269;22;20276;-77
2023/07/29 10:56:33;;;;;;;8.82;8.60;;;22.20;99.90;;;;;;6288150;22;20210;-78
2023/07/29 10:59:32;;;;;;;8.80;8.60;;;22.60;99.90;;;;;;6288701;22;20248;-80
2023/07/29 11:02:01;;;;;;;8.75;8.55;;;22.80;99.90;;;;;;6263720;22;20201;-79
2023/07/29 11:04:30;;;;;;;9.50;9.20;;;23.30;99.90;;;;;;6289754;22;20197;-78
2023/07/29 11:07:26;;;;;;;9.90;9.60;;;23.50;99.90;;;;;;6290137;22;20234;-78
2023/07/29 11:09:59;;;;;;;9.88;9.57;;;23.20;99.90;;;;;;6299049;22;20202;-79
2023/07/29 11:12:45;;;;;;;9.98;9.68;;;23.10;99.90;;;;;;6294276;22;20204;-78
2023/07/29 11:15:24;;;;;;;9.90;9.60;;;22.90;99.90;;;;;;6293547;22;20185;-79
2023/07/29 11:17:56;;;;;;;9.90;9.60;;;22.70;99.90;;;;;;6290510;22;20276;-78
2023/07/29 11:20:25;;;;;;;9.90;9.60;;;22.70;99.90;;;;;;6290668;22;20186;-77
2023/07/29 11:22:54;;;;;;;9.75;9.45;;;22.60;99.90;;;;;;6294008;22;20261;-79
2023/07/29 11:25:24;;;;;;;9.80;9.50;;;22.50;99.90;;;;;;6293553;22;20281;-78
2023/07/29 11:27:53;;;;;;;9.68;9.38;;;22.50;99.90;;;;;;6293732;22;20204;-78
2023/07/29 11:30:22;;;;;;;9.80;9.50;;;22.40;99.90;;;;;;6292514;22;20198;-79
2023/07/29 11:32:49;;;;;;;9.80;9.50;;;22.40;99.90;;;;;;6292875;22;20240;-77
2023/07/29 11:35:20;;;;;;;9.65;9.35;;;22.60;99.90;;;;;;6288319;22;20236;-79
2023/07/29 11:37:49;;;;;;;9.80;9.50;;;22.70;99.90;;;;;;6290710;22;20995;-79
2023/07/29 11:40:17;;;;;;;9.90;9.60;;;22.80;99.90;;;;;;6288315;22;20200;-79
2023/07/29 11:42:49;;;;;;;9.70;9.40;;;22.90;99.90;;;;;;6287428;22;20202;-79
2023/07/29 11:45:16;;;;;;;9.95;9.65;;;23.00;99.90;;;;;;6285058;22;20197;-79
2023/07/29 11:47:43;;;;;;;9.70;9.40;;;22.90;99.90;;;;;;6284418;22;20208;-78
2023/07/29 11:50:14;;;;;;;9.68;9.38;;;22.90;99.90;;;;;;6283755;22;20198;-78
2023/07/29 11:52:43;;;;;;;9.80;9.50;;;23.10;99.90;;;;;;6283057;22;20205;-78
2023/07/29 11:55:11;;;;;;;9.77;9.48;;;23.50;99.90;;;;;;6285071;22;20261;-78
2023/07/29 11:57:40;;;;;;;10.00;9.70;;;23.80;99.90;;;;;;6286781;22;20198;-78
2023/07/29 12:00:26;;;;;;;10.20;9.90;;;24.10;99.90;;;;;;6288350;22;20243;-78
2023/07/29 12:02:54;;;;;;;10.20;9.90;;;24.30;99.90;;;;;;6288214;22;20256;-78
2023/07/29 12:05:23;;;;;;;10.10;9.80;;;24.60;99.90;;;;;;6293045;22;20210;-77
2023/07/29 12:07:52;;;;;;;10.50;10.20;;;25.00;99.90;;;;;;6289721;22;20225;-79
2023/07/29 12:10:21;;;;;;;10.30;10.00;;;25.30;99.90;;;;;;6291772;22;20197;-78
2023/07/29 12:12:49;;;;;;;10.18;9.88;;;25.40;99.90;;;;;;6289287;22;20255;-78
2023/07/29 12:15:25;;;;;;;10.30;10.00;;;25.30;99.90;;;;;;6292605;22;20189;-79
2023/07/29 12:17:57;;;;;;;10.02;9.73;;;25.10;99.90;;;;;;6300503;22;20220;-79
2023/07/29 12:20:24;;;;;;;10.35;10.05;;;25.40;99.90;;;;;;6294823;22;20247;-79
2023/07/29 12:22:58;;;;;;;10.45;10.15;;;25.90;99.90;;;;;;6292145;22;20201;-79
2023/07/29 12:25:26;;;;;;;10.13;9.82;;;26.00;99.90;;;;;;6288787;22;20205;-78
2023/07/29 12:27:54;;;;;;;10.30;10.00;;;26.10;99.90;;;;;;6291076;22;20221;-78
2023/07/29 12:30:26;;;;;;;10.35;10.05;;;26.00;99.90;;;;;;6290128;22;20197;-78
2023/07/29 12:32:53;;;;;;;10.38;10.07;;;25.90;99.90;;;;;;6289429;22;20237;-78
2023/07/29 12:35:20;;;;;;;10.32;10.02;;;25.90;99.90;;;;;;6284980;22;20208;-79
2023/07/29 12:37:47;;;;;;;10.30;10.00;;;26.10;99.90;;;;;;6287719;22;20202;-78
2023/07/29 12:40:26;;;;;;;10.25;9.95;;;26.20;99.90;;;;;;6290741;22;20193;-78
2023/07/29 12:42:54;;;;;;;10.63;10.32;;;26.10;99.90;;;;;;6287976;22;20197;-78
2023/07/29 12:45:22;;;;;;;10.50;10.20;;;25.90;99.90;;;;;;6286176;22;20206;-79
2023/07/29 12:47:50;;;;;;;10.52;10.23;;;25.60;99.90;;;;;;6287539;22;20672;-77
2023/07/29 12:50:17;;;;;;;10.63;10.32;;;25.60;99.90;;;;;;6286814;22;20220;-79
2023/07/29 12:52:44;;;;;;;10.80;10.50;;;25.80;99.90;;;;;;6287066;22;20217;-79
2023/07/29 12:55:13;;;;;;;10.70;10.40;;;26.10;99.90;;;;;;6288817;22;20213;-79
2023/07/29 12:57:43;;;;;;;10.40;10.10;;;26.70;99.90;;;;;;6296521;22;20204;-78
2023/07/29 13:00:12;;;;;;;10.60;10.30;;;26.80;99.90;;;;;;6288241;22;20345;-79
2023/07/29 13:02:39;;;;;;;10.30;10.00;;;26.70;99.90;;;;;;6289395;22;20197;-79
2023/07/29 13:05:09;;;;;;;10.50;10.20;;;26.60;99.90;;;;;;6288537;22;20598;-79
2023/07/29 13:07:37;;;;;;;10.40;10.10;;;26.30;99.90;;;;;;6288207;22;20220;-79
2023/07/29 13:10:04;;;;;;;10.32;10.02;;;26.20;99.90;;;;;;6289126;22;20293;-78
2023/07/29 13:12:32;;;;;;;10.43;10.13;;;26.10;99.90;;;;;;6290108;22;20213;-78
2023/07/29 13:15:01;;;;;;;10.25;9.95;;;25.90;99.90;;;;;;6291854;22;20681;-78
2023/07/29 13:17:28;;;;;;;10.32;10.02;;;25.80;99.90;;;;;;6297452;22;20253;-78
2023/07/29 13:19:55;;;;;;;10.60;10.30;;;25.90;99.90;;;;;;6292085;22;20228;-77
2023/07/29 13:22:23;;;;;;;10.40;10.10;;;26.50;99.90;;;;;;6287440;22;20202;-78
2023/07/29 13:24:50;;;;;;;10.40;10.10;;;26.70;99.90;;;;;;6286227;22;20280;-78
2023/07/29 13:27:17;;;;;;;10.02;9.73;;;26.30;99.90;;;;;;6286403;22;20194;-78
2023/07/29 13:29:45;;;;;;;10.35;10.05;;;26.20;99.90;;;;;;6286234;22;20209;-78
2023/07/29 13:32:14;;;;;;;10.40;10.10;;;26.40;99.90;;;;;;6284749;22;20290;-78
2023/07/29 13:34:41;;;;;;;10.13;9.82;;;26.60;99.90;;;;;;6285649;22;20197;-78
2023/07/29 13:37:08;;;;;;;10.10;9.80;;;26.80;99.90;;;;;;6285726;22;20206;-78
2023/07/29 13:39:35;;;;;;;10.40;10.10;;;27.00;99.90;;;;;;6285603;22;20201;-78
2023/07/29 13:42:02;;;;;;;10.30;10.00;;;27.10;99.90;;;;;;6284745;22;20215;-78
2023/07/29 13:44:29;;;;;;;10.20;9.90;;;27.20;99.90;;;;;;6283841;22;20206;-78
2023/07/29 13:46:56;;;;;;;10.30;10.00;;;27.10;99.90;;;;;;6284503;22;20201;-78
2023/07/29 13:49:24;;;;;;;10.40;10.10;;;26.90;99.90;;;;;;6283847;22;20217;-78
2023/07/29 13:51:51;;;;;;;10.10;9.80;;;26.80;99.90;;;;;;6295073;22;20289;-78
2023/07/29 13:54:18;;;;;;;10.10;9.80;;;26.70;99.90;;;;;;6288921;22;20205;-78
2023/07/29 13:56:45;;;;;;;10.18;9.88;;;26.80;99.90;;;;;;6288037;22;20202;-78
2023/07/29 13:59:12;;;;;;;10.30;10.00;;;26.90;99.90;;;;;;6285821;22;20197;-79
2023/07/29 14:01:39;;;;;;;10.10;9.80;;;27.10;99.90;;;;;;6284729;22;20295;-78
2023/07/29 14:04:06;;;;;;;10.00;9.70;;;27.10;99.90;;;;;;6284079;22;20201;-78
2023/07/29 14:06:35;;;;;;;10.02;9.73;;;27.00;99.90;;;;;;6284039;22;20212;-80
2023/07/29 14:09:02;;;;;;;10.10;9.80;;;27.00;99.90;;;;;;6284007;22;20198;-79
2023/07/29 14:11:29;;;;;;;10.45;10.15;;;27.10;99.90;;;;;;6283455;22;20241;-79
2023/07/29 14:13:56;;;;;;;10.50;10.20;;;27.10;99.90;;;;;;6284038;22;20254;-79
2023/07/29 14:16:23;;;;;;;10.20;9.90;;;27.00;99.90;;;;;;6283917;22;20194;-79
2023/07/29 14:18:50;;;;;;;10.40;10.10;;;26.70;99.90;;;;;;6284249;22;20189;-78
2023/07/29 14:21:18;;;;;;;10.63;10.32;;;26.60;99.90;;;;;;6283966;22;20257;-79
2023/07/29 14:23:46;;;;;;;10.50;10.20;;;26.80;99.90;;;;;;6283719;22;20206;-78
2023/07/29 14:26:13;;;;;;;10.60;10.30;;;27.00;99.90;;;;;;6283931;22;20225;-79
2023/07/29 14:28:40;;;;;;;10.57;10.27;;;27.00;99.90;;;;;;6284476;22;20700;-79
2023/07/29 14:31:07;;;;;;;10.50;10.20;;;27.20;99.90;;;;;;6284446;22;20249;-78
2023/07/29 14:33:34;;;;;;;10.40;10.10;;;27.20;99.90;;;;;;6283464;22;20205;-78
2023/07/29 14:36:03;;;;;;;10.50;10.20;;;27.10;99.90;;;;;;6283379;22;20209;-78
2023/07/29 14:38:30;;;;;;;10.50;10.20;;;26.80;99.90;;;;;;6283500;22;20252;-79
2023/07/29 14:40:58;;;;;;;10.60;10.30;;;26.60;99.90;;;;;;6283075;22;20201;-79
2023/07/29 14:43:25;;;;;;;10.40;10.10;;;26.50;99.90;;;;;;6283359;22;20216;-77
2023/07/29 14:45:52;;;;;;;10.45;10.15;;;26.50;99.90;;;;;;6303805;22;20246;-77
2023/07/29 14:48:19;;;;;;;10.27;9.98;;;26.60;99.90;;;;;;6307362;22;20189;-78
2023/07/29 14:50:46;;;;;;;10.50;10.20;;;26.90;99.90;;;;;;6304357;22;20223;-78
2023/07/29 14:53:13;;;;;;;10.30;10.00;;;27.20;99.90;;;;;;6305378;22;20212;-78
2023/07/29 14:55:40;;;;;;;10.80;10.50;;;27.40;99.90;;;;;;6293477;22;20208;-78
2023/07/29 14:58:08;;;;;;;10.48;10.18;;;27.60;99.90;;;;;;6288070;22;20201;-78
2023/07/29 15:00:35;;;;;;;10.57;10.27;;;27.40;99.90;;;;;;6288649;22;20224;-78
2023/07/29 15:03:03;;;;;;;10.57;10.27;;;27.60;99.90;;;;;;6288669;22;20193;-78
2023/07/29 15:05:30;;;;;;;10.48;10.18;;;27.80;99.90;;;;;;6288496;22;20193;-78
2023/07/29 15:07:57;;;;;;;10.38;10.07;;;28.00;99.90;;;;;;6288809;22;20199;-78
2023/07/29 15:10:24;;;;;;;10.60;10.30;;;28.20;99.90;;;;;;6287799;22;20240;-78
2023/07/29 15:12:52;;;;;;;10.40;10.10;;;28.00;99.90;;;;;;6287230;22;20256;-78
2023/07/29 15:15:22;;;;;;;10.52;10.23;;;27.70;99.90;;;;;;6288522;22;20221;-78
2023/07/29 15:17:49;;;;;;;10.32;10.02;;;27.40;99.90;;;;;;6288204;22;20201;-78
2023/07/29 15:20:15;;;;;;;10.43;10.13;;;27.40;99.90;;;;;;6285928;22;20201;-78
2023/07/29 15:22:43;;;;;;;10.30;10.00;;;27.40;99.90;;;;;;6285378;22;20209;-78
2023/07/29 15:25:10;;;;;;;10.60;10.30;;;27.50;99.90;;;;;;6286431;22;20220;-78
2023/07/29 15:27:38;;;;;;;10.35;10.05;;;27.80;99.90;;;;;;6286900;22;21028;-78
2023/07/29 15:30:07;;;;;;;10.35;10.05;;;27.80;99.90;;;;;;6284057;22;20205;-78
2023/07/29 15:32:36;;;;;;;10.40;10.10;;;28.10;99.90;;;;;;6285150;22;20217;-79
2023/07/29 15:35:03;;;;;;;10.50;10.20;;;28.30;99.90;;;;;;6287329;22;20273;-79
2023/07/29 15:37:30;;;;;;;10.60;10.30;;;28.40;99.90;;;;;;6289569;22;20193;-78
2023/07/29 15:39:57;;;;;;;10.73;10.43;;;28.40;99.90;;;;;;6292645;22;20273;-79
2023/07/29 15:42:24;;;;;;;10.60;10.30;;;28.20;99.90;;;;;;6285151;22;20209;-78
2023/07/29 15:44:52;;;;;;;10.77;10.48;;;28.10;99.90;;;;;;6290126;22;20194;-78
2023/07/29 15:47:19;;;;;;;10.63;10.32;;;28.10;99.90;;;;;;6287900;22;20296;-77
2023/07/29 15:49:47;;;;;;;10.55;10.25;;;28.20;99.90;;;;;;6288755;22;20208;-78
2023/07/29 15:52:14;;;;;;;10.77;10.48;;;28.20;99.90;;;;;;6286882;22;20285;-79
2023/07/29 15:54:42;;;;;;;10.50;10.20;;;28.30;99.90;;;;;;6286064;22;20256;-79
2023/07/29 15:57:10;;;;;;;10.45;10.15;;;28.50;99.90;;;;;;6286429;22;20197;-80